Time;durP1;ratioP1;P1;durP2;ratioP2;P2;SDS_P1;SDS_P2;PMS_P1;PMS_P2;Temp;Humidity;BMP_temperature;BMP_pressure;BME280_temperature;BME280_humidity;BME280_pressure;Samples;Min_cycle;Max_cycle;Signal;HPM_P1;HPM_P2
2022/07/19 00:02:09;;;;;;;9.55;8.55;;;27.40;1.00;;;;;;5090554;28;20044;-77
2022/07/19 00:04:35;;;;;;;9.55;8.65;;;27.40;1.00;;;;;;5090725;28;20058;-77
2022/07/19 00:07:01;;;;;;;10.13;9.10;;;27.40;1.00;;;;;;5089347;28;20032;-77
2022/07/19 00:09:26;;;;;;;10.73;9.13;;;27.40;1.00;;;;;;5091729;28;20024;-77
2022/07/19 00:11:53;;;;;;;10.23;9.43;;;27.40;1.00;;;;;;5091146;28;20612;-77
2022/07/19 00:14:19;;;;;;;10.68;9.77;;;27.40;1.00;;;;;;5090596;28;20038;-77
2022/07/19 00:16:45;;;;;;;10.02;9.15;;;27.40;1.00;;;;;;5091245;28;20103;-77
2022/07/19 00:19:10;;;;;;;10.77;9.23;;;27.30;1.00;;;;;;5090734;28;20176;-77
2022/07/19 00:21:36;;;;;;;9.70;8.80;;;27.30;1.00;;;;;;5090590;28;20028;-78
2022/07/19 00:24:02;;;;;;;10.00;9.10;;;27.30;1.00;;;;;;5092743;28;20392;-78
2022/07/19 00:26:28;;;;;;;9.65;8.75;;;27.30;1.00;;;;;;5089895;28;20067;-77
2022/07/19 00:28:54;;;;;;;9.63;8.82;;;27.30;1.00;;;;;;5090262;28;20097;-77
2022/07/19 00:31:24;;;;;;;9.15;8.25;;;27.30;1.00;;;;;;5090555;28;20020;-77
2022/07/19 00:33:51;;;;;;;9.00;8.20;;;27.20;1.00;;;;;;5075221;28;20032;-77
2022/07/19 00:36:17;;;;;;;9.00;8.10;;;27.30;1.00;;;;;;5087922;28;20051;-77
2022/07/19 00:38:43;;;;;;;8.93;8.13;;;27.30;1.00;;;;;;5090721;28;20028;-77
2022/07/19 00:41:09;;;;;;;8.60;7.80;;;27.30;1.00;;;;;;5090025;28;20027;-77
2022/07/19 00:43:34;;;;;;;8.50;7.80;;;27.30;1.00;;;;;;5090074;28;20044;-78
2022/07/19 00:46:00;;;;;;;8.35;7.65;;;27.30;1.00;;;;;;5089058;28;20455;-77
2022/07/19 00:48:26;;;;;;;8.80;8.00;;;27.30;1.00;;;;;;5092112;28;20032;-77
2022/07/19 00:50:52;;;;;;;8.88;7.97;;;27.30;1.00;;;;;;5090861;28;20020;-77
2022/07/19 00:53:19;;;;;;;8.52;7.65;;;27.20;1.00;;;;;;5090334;28;20028;-78
2022/07/19 00:55:45;;;;;;;8.15;7.35;;;27.20;1.00;;;;;;5089694;28;20069;-77
2022/07/19 00:58:13;;;;;;;8.35;7.57;;;27.20;1.00;;;;;;5090184;28;20027;-78
2022/07/19 01:00:40;;;;;;;8.65;7.90;;;27.20;1.00;;;;;;5090578;28;20020;-77
2022/07/19 01:03:07;;;;;;;8.05;7.25;;;27.20;1.00;;;;;;5092090;28;20047;-77
2022/07/19 01:05:34;;;;;;;8.32;7.55;;;27.10;1.00;;;;;;5089756;28;20024;-77
2022/07/19 01:08:00;;;;;;;8.15;7.45;;;27.10;1.00;;;;;;5089561;28;20032;-77
2022/07/19 01:10:27;;;;;;;8.48;7.78;;;27.10;1.00;;;;;;5090412;28;20422;-77
2022/07/19 01:12:53;;;;;;;8.60;7.40;;;27.00;1.00;;;;;;5089976;28;20040;-77
2022/07/19 01:15:22;;;;;;;8.68;7.63;;;27.00;1.00;;;;;;5092089;28;20024;-78
2022/07/19 01:17:48;;;;;;;8.57;7.78;;;27.00;1.00;;;;;;5090334;28;20028;-77
2022/07/19 01:20:14;;;;;;;8.25;7.20;;;27.00;1.00;;;;;;5090077;28;20048;-77
2022/07/19 01:22:42;;;;;;;8.32;7.53;;;27.00;1.00;;;;;;5089010;28;20040;-77
2022/07/19 01:25:08;;;;;;;8.38;7.32;;;27.10;1.00;;;;;;5088398;28;20028;-77
2022/07/19 01:27:42;;;;;;;8.70;7.75;;;27.10;1.00;;;;;;5090055;28;20032;-77
2022/07/19 01:30:13;;;;;;;8.80;7.97;;;27.00;1.00;;;;;;5090529;28;20036;-78
2022/07/19 01:32:39;;;;;;;8.45;7.70;;;26.90;1.00;;;;;;5089901;28;20496;-78
2022/07/19 01:35:06;;;;;;;8.23;7.43;;;26.90;1.00;;;;;;5089717;28;20035;-77
2022/07/19 01:37:32;;;;;;;8.30;7.57;;;26.90;1.00;;;;;;5089118;28;20028;-77
2022/07/19 01:39:58;;;;;;;8.95;8.13;;;26.90;1.00;;;;;;5089624;28;20032;-78
2022/07/19 01:42:24;;;;;;;7.97;7.25;;;26.90;1.00;;;;;;5090964;28;20393;-78
2022/07/19 01:44:50;;;;;;;8.35;7.55;;;26.80;1.00;;;;;;5089122;28;20044;-77
2022/07/19 01:47:16;;;;;;;10.48;7.78;;;26.80;1.00;;;;;;5088874;28;20028;-77
2022/07/19 01:49:41;;;;;;;8.18;7.47;;;26.80;1.00;;;;;;5088672;28;20031;-77
2022/07/19 01:52:07;;;;;;;9.02;7.93;;;26.70;1.00;;;;;;5088860;28;20400;-78
2022/07/19 01:54:33;;;;;;;8.40;7.57;;;26.70;1.00;;;;;;5089796;28;20040;-77
2022/07/19 01:56:58;;;;;;;8.73;7.80;;;26.70;1.00;;;;;;5091628;28;20028;-77
2022/07/19 01:59:24;;;;;;;8.20;7.40;;;26.70;1.00;;;;;;5089725;28;20085;-77
2022/07/19 02:01:50;;;;;;;8.60;7.80;;;26.70;1.00;;;;;;5089421;28;20025;-78
2022/07/19 02:04:16;;;;;;;7.65;7.00;;;26.70;1.00;;;;;;5087892;28;20523;-77
2022/07/19 02:06:41;;;;;;;8.40;7.60;;;26.70;1.00;;;;;;5089383;28;20094;-77
2022/07/19 02:09:07;;;;;;;8.45;7.75;;;26.70;1.00;;;;;;5091841;28;20024;-77
2022/07/19 02:11:35;;;;;;;8.02;7.30;;;26.60;1.00;;;;;;5089130;28;20111;-77
2022/07/19 02:14:08;;;;;;;7.80;7.10;;;26.70;1.00;;;;;;5088822;28;20048;-78
2022/07/19 02:16:35;;;;;;;7.85;7.15;;;26.70;1.00;;;;;;5090105;28;20090;-78
2022/07/19 02:19:01;;;;;;;8.35;7.50;;;26.60;1.00;;;;;;5093351;28;20028;-77
2022/07/19 02:21:26;;;;;;;7.90;7.18;;;26.60;1.00;;;;;;5093943;28;20530;-77
2022/07/19 02:23:52;;;;;;;8.10;7.40;;;26.60;1.00;;;;;;5093444;28;20490;-77
2022/07/19 02:26:18;;;;;;;8.27;7.60;;;26.60;1.00;;;;;;5092840;28;20377;-77
2022/07/19 02:28:43;;;;;;;8.77;7.40;;;26.60;1.00;;;;;;5092536;28;20051;-77
2022/07/19 02:31:09;;;;;;;8.57;7.65;;;26.60;1.00;;;;;;5092735;28;20026;-77
2022/07/19 02:33:35;;;;;;;8.20;7.40;;;26.50;1.00;;;;;;5092870;28;20031;-77
2022/07/19 02:36:03;;;;;;;8.05;7.25;;;26.50;1.00;;;;;;5092462;28;20116;-77
2022/07/19 02:38:29;;;;;;;8.75;8.00;;;26.50;1.00;;;;;;5092930;28;20411;-77
2022/07/19 02:40:55;;;;;;;8.30;7.57;;;26.50;1.00;;;;;;5093052;28;20028;-77
2022/07/19 02:43:21;;;;;;;8.23;7.50;;;26.50;1.00;;;;;;5091070;28;20036;-77
2022/07/19 02:45:46;;;;;;;8.68;7.70;;;26.50;1.00;;;;;;5092557;28;20077;-77
2022/07/19 02:48:12;;;;;;;7.88;7.25;;;26.50;1.00;;;;;;5076832;28;20073;-78
2022/07/19 02:50:38;;;;;;;8.70;7.80;;;26.50;1.00;;;;;;5073993;28;20560;-77
2022/07/19 02:53:03;;;;;;;8.55;7.70;;;26.30;1.00;;;;;;5092197;28;20392;-77
2022/07/19 02:55:30;;;;;;;8.15;7.38;;;26.40;1.00;;;;;;5092073;28;20035;-77
2022/07/19 02:57:55;;;;;;;7.95;7.25;;;26.40;1.00;;;;;;5092799;28;20557;-77
2022/07/19 03:00:21;;;;;;;8.30;7.50;;;26.40;1.00;;;;;;5093804;28;20016;-77
2022/07/19 03:02:47;;;;;;;8.50;7.57;;;26.50;1.00;;;;;;5092663;28;20032;-77
2022/07/19 03:05:12;;;;;;;8.05;7.32;;;26.50;1.00;;;;;;5092073;28;20020;-77
2022/07/19 03:07:38;;;;;;;8.65;7.50;;;26.50;1.00;;;;;;5091881;28;20169;-77
2022/07/19 03:10:05;;;;;;;8.65;7.90;;;26.50;1.00;;;;;;5092055;28;20020;-78
2022/07/19 03:12:30;;;;;;;8.10;7.30;;;26.50;1.00;;;;;;5092672;28;20024;-77
2022/07/19 03:14:56;;;;;;;7.95;7.25;;;26.40;1.00;;;;;;5093750;28;20054;-77
2022/07/19 03:17:22;;;;;;;8.40;7.70;;;26.40;1.00;;;;;;5091775;28;20034;-77
2022/07/19 03:19:47;;;;;;;7.75;7.05;;;26.40;1.00;;;;;;5091396;28;20030;-77
2022/07/19 03:22:13;;;;;;;8.75;7.70;;;26.40;1.00;;;;;;5090202;28;20110;-77
2022/07/19 03:24:39;;;;;;;8.75;7.88;;;26.40;1.00;;;;;;5091722;28;20059;-77
2022/07/19 03:27:04;;;;;;;8.75;7.88;;;26.30;1.00;;;;;;5093775;28;20111;-77
2022/07/19 03:29:30;;;;;;;8.40;7.53;;;26.30;1.00;;;;;;5090740;28;20393;-78
2022/07/19 03:31:56;;;;;;;8.55;7.80;;;26.20;1.00;;;;;;5091729;28;20058;-77
2022/07/19 03:34:22;;;;;;;10.27;7.72;;;26.20;1.00;;;;;;5091367;28;20061;-77
2022/07/19 03:36:47;;;;;;;8.52;7.82;;;26.20;1.00;;;;;;5091551;28;20030;-77
2022/07/19 03:39:13;;;;;;;8.35;7.55;;;26.20;1.00;;;;;;5093971;28;20058;-77
2022/07/19 03:41:39;;;;;;;8.23;7.53;;;26.20;1.00;;;;;;5073371;28;20064;-76
2022/07/19 03:44:05;;;;;;;10.38;7.57;;;26.20;1.00;;;;;;5090619;28;20047;-78
2022/07/19 03:46:30;;;;;;;9.35;7.55;;;26.20;1.00;;;;;;5091125;28;20320;-76
2022/07/19 03:48:57;;;;;;;9.35;8.15;;;26.10;1.00;;;;;;5090640;28;20487;-77
2022/07/19 03:51:23;;;;;;;8.40;7.70;;;26.10;1.00;;;;;;5091617;28;20028;-77
2022/07/19 03:53:49;;;;;;;8.98;7.93;;;26.10;1.00;;;;;;5091616;28;20024;-77
2022/07/19 03:56:17;;;;;;;10.15;8.20;;;26.10;1.00;;;;;;5090328;28;20051;-77
2022/07/19 03:58:43;;;;;;;8.82;7.50;;;26.00;1.00;;;;;;5090428;28;20036;-77
2022/07/19 04:01:09;;;;;;;8.68;7.88;;;26.00;1.00;;;;;;5089759;28;20067;-78
2022/07/19 04:03:39;;;;;;;9.40;8.23;;;26.10;1.00;;;;;;5090106;28;20063;-77
2022/07/19 04:06:10;;;;;;;9.05;8.18;;;26.00;1.00;;;;;;5092659;28;20084;-77
2022/07/19 04:08:36;;;;;;;8.82;8.13;;;26.00;1.00;;;;;;5088491;28;20081;-80
2022/07/19 04:11:02;;;;;;;8.80;7.93;;;26.10;1.00;;;;;;5090785;28;20028;-80
2022/07/19 04:13:28;;;;;;;8.38;7.57;;;26.10;1.00;;;;;;5090987;28;20034;-79
2022/07/19 04:15:54;;;;;;;9.50;8.20;;;26.10;1.00;;;;;;5090794;28;20021;-79
2022/07/19 04:18:19;;;;;;;8.65;7.78;;;26.20;1.00;;;;;;5092347;28;20491;-80
2022/07/19 04:20:45;;;;;;;9.57;7.95;;;26.40;1.00;;;;;;5090771;28;20116;-79
2022/07/19 04:23:11;;;;;;;8.57;7.85;;;26.30;1.00;;;;;;5090439;28;20062;-79
2022/07/19 04:25:36;;;;;;;8.57;7.78;;;26.20;1.00;;;;;;5090487;28;20115;-79
2022/07/19 04:28:03;;;;;;;9.45;8.45;;;26.10;1.00;;;;;;5090792;28;20282;-80
2022/07/19 04:30:29;;;;;;;10.07;8.45;;;26.00;1.00;;;;;;5091499;28;20438;-79
2022/07/19 04:32:54;;;;;;;9.20;8.35;;;26.00;1.00;;;;;;5091260;28;20016;-79
2022/07/19 04:35:20;;;;;;;9.85;8.88;;;26.00;1.00;;;;;;5090331;28;20027;-78
2022/07/19 04:37:46;;;;;;;8.73;7.93;;;26.00;1.00;;;;;;5090336;28;20028;-79
2022/07/19 04:40:12;;;;;;;10.50;8.35;;;26.00;1.00;;;;;;5088724;28;20024;-79
2022/07/19 04:42:38;;;;;;;8.88;8.07;;;26.00;1.00;;;;;;5090551;28;20400;-79
2022/07/19 04:45:04;;;;;;;9.70;8.70;;;25.90;1.00;;;;;;5092353;28;20024;-80
2022/07/19 04:47:30;;;;;;;9.32;8.48;;;25.90;1.00;;;;;;5089532;28;20131;-77
2022/07/19 04:49:56;;;;;;;9.30;8.40;;;26.00;1.00;;;;;;5088416;28;20099;-78
2022/07/19 04:52:21;;;;;;;9.45;8.65;;;25.90;1.00;;;;;;5090131;28;20047;-77
2022/07/19 04:54:47;;;;;;;9.35;8.55;;;25.90;1.00;;;;;;5089790;28;20539;-77
2022/07/19 04:57:14;;;;;;;9.40;8.60;;;25.90;1.00;;;;;;5092197;28;20078;-77
2022/07/19 04:59:40;;;;;;;9.88;8.88;;;25.90;1.00;;;;;;5090005;28;20543;-77
2022/07/19 05:02:06;;;;;;;9.75;8.73;;;25.90;1.00;;;;;;5089353;28;20086;-77
2022/07/19 05:04:32;;;;;;;9.95;9.05;;;25.90;1.00;;;;;;5089896;28;20036;-77
2022/07/19 05:06:58;;;;;;;10.90;8.68;;;26.00;1.00;;;;;;5089861;28;20043;-77
2022/07/19 05:09:28;;;;;;;10.00;9.00;;;25.90;1.00;;;;;;5091445;28;20104;-77
2022/07/19 05:11:54;;;;;;;9.27;8.48;;;25.90;1.00;;;;;;5090689;28;20058;-78
2022/07/19 05:14:20;;;;;;;10.13;9.05;;;25.90;1.00;;;;;;5089395;28;20036;-76
2022/07/19 05:16:47;;;;;;;10.85;8.82;;;26.00;1.00;;;;;;5089300;28;20118;-79
2022/07/19 05:19:13;;;;;;;9.63;8.43;;;26.10;1.00;;;;;;5088420;28;20551;-78
2022/07/19 05:21:39;;;;;;;9.52;8.60;;;26.10;1.00;;;;;;5089843;28;20138;-79
2022/07/19 05:24:05;;;;;;;9.82;8.90;;;26.10;1.00;;;;;;5091830;28;20028;-78
2022/07/19 05:26:31;;;;;;;9.68;8.63;;;26.20;1.00;;;;;;5089979;28;20031;-79
2022/07/19 05:28:57;;;;;;;9.63;8.73;;;26.20;1.00;;;;;;5089187;28;20040;-79
2022/07/19 05:31:23;;;;;;;10.13;9.23;;;26.30;1.00;;;;;;5089566;28;20031;-79
2022/07/19 05:33:48;;;;;;;10.32;9.25;;;26.40;1.00;;;;;;5090264;28;20373;-79
2022/07/19 05:36:14;;;;;;;10.30;9.30;;;26.40;1.00;;;;;;5091604;28;20024;-84
2022/07/19 05:38:40;;;;;;;10.75;9.85;;;26.50;1.00;;;;;;5089888;28;20071;-80
2022/07/19 05:41:07;;;;;;;10.65;9.60;;;26.50;1.00;;;;;;5089973;28;20035;-79
2022/07/19 05:43:34;;;;;;;10.15;9.15;;;26.60;1.00;;;;;;5089411;28;20043;-77
2022/07/19 05:46:00;;;;;;;10.68;9.77;;;26.70;1.00;;;;;;5090080;28;20028;-77
2022/07/19 05:48:25;;;;;;;10.80;9.70;;;26.60;1.00;;;;;;5091401;28;20024;-77
2022/07/19 05:50:51;;;;;;;10.55;9.55;;;26.70;1.00;;;;;;5090689;28;20028;-77
2022/07/19 05:53:17;;;;;;;10.50;9.50;;;26.80;1.00;;;;;;5093752;28;20035;-77
2022/07/19 05:55:44;;;;;;;12.82;10.35;;;26.60;1.00;;;;;;5093738;28;20036;-77
2022/07/19 05:58:09;;;;;;;11.10;9.95;;;26.70;1.00;;;;;;5092122;28;20069;-77
2022/07/19 06:00:35;;;;;;;11.07;10.00;;;26.80;1.00;;;;;;5093997;28;20472;-78
2022/07/19 06:03:00;;;;;;;13.38;10.13;;;26.90;1.00;;;;;;5095773;28;20028;-77
2022/07/19 06:05:26;;;;;;;10.65;9.73;;;26.90;1.00;;;;;;5075585;28;20035;-77
2022/07/19 06:07:52;;;;;;;10.90;10.00;;;27.00;1.00;;;;;;5093681;28;20522;-78
2022/07/19 06:10:17;;;;;;;12.10;10.80;;;27.00;1.00;;;;;;5094127;28;20021;-77
2022/07/19 06:12:43;;;;;;;11.18;10.07;;;27.10;1.00;;;;;;5093427;28;20070;-78
2022/07/19 06:15:09;;;;;;;11.57;10.38;;;27.20;1.00;;;;;;5095766;28;20028;-77
2022/07/19 06:17:35;;;;;;;14.55;11.25;;;27.20;1.00;;;;;;5093633;28;20031;-77
2022/07/19 06:20:01;;;;;;;11.52;10.23;;;27.40;1.00;;;;;;5093447;28;20032;-77
2022/07/19 06:22:31;;;;;;;11.35;10.25;;;27.40;1.00;;;;;;5093340;28;20032;-77
2022/07/19 06:24:57;;;;;;;11.50;10.35;;;27.50;1.00;;;;;;5093604;28;20045;-77
2022/07/19 06:27:22;;;;;;;11.93;10.23;;;27.60;1.00;;;;;;5094640;28;20035;-78
2022/07/19 06:29:48;;;;;;;11.73;10.48;;;27.70;1.00;;;;;;5092309;28;20447;-77
2022/07/19 06:32:14;;;;;;;11.10;10.13;;;27.80;1.00;;;;;;5093125;28;20027;-77
2022/07/19 06:34:39;;;;;;;13.88;9.93;;;27.90;1.00;;;;;;5093283;28;20453;-77
2022/07/19 06:37:05;;;;;;;14.02;10.60;;;27.90;1.00;;;;;;5092122;28;20491;-77
2022/07/19 06:39:30;;;;;;;10.68;9.68;;;28.00;1.00;;;;;;5094435;28;20059;-78
2022/07/19 06:41:56;;;;;;;15.57;9.82;;;28.10;1.00;;;;;;5094497;28;20012;-77
2022/07/19 06:44:22;;;;;;;12.82;10.27;;;28.20;1.00;;;;;;5092965;28;20039;-77
2022/07/19 06:46:47;;;;;;;10.80;9.73;;;28.30;1.00;;;;;;5093113;28;20020;-78
2022/07/19 06:49:13;;;;;;;10.90;9.43;;;28.40;1.00;;;;;;5093023;28;20066;-77
2022/07/19 06:51:38;;;;;;;12.10;10.35;;;28.40;1.00;;;;;;5093625;28;20027;-77
2022/07/19 06:54:04;;;;;;;11.20;10.00;;;28.50;1.00;;;;;;5095125;28;20114;-77
2022/07/19 06:56:30;;;;;;;12.43;9.38;;;28.50;1.00;;;;;;5093042;28;20024;-77
2022/07/19 06:58:55;;;;;;;11.60;9.30;;;28.60;1.00;;;;;;5092903;28;20032;-77
2022/07/19 07:01:21;;;;;;;10.38;9.27;;;28.60;1.00;;;;;;5092638;28;20031;-77
2022/07/19 07:03:46;;;;;;;11.15;9.60;;;28.80;1.00;;;;;;5092556;28;20040;-77
2022/07/19 07:06:12;;;;;;;12.15;9.98;;;29.00;1.00;;;;;;5095048;28;20381;-77
2022/07/19 07:08:38;;;;;;;12.07;9.10;;;29.10;1.00;;;;;;5092762;28;20039;-77
2022/07/19 07:11:04;;;;;;;10.77;9.00;;;29.10;1.00;;;;;;5092573;28;20527;-77
2022/07/19 07:13:30;;;;;;;10.48;9.20;;;29.10;1.00;;;;;;5092388;28;20043;-78
2022/07/19 07:15:55;;;;;;;10.13;9.05;;;29.10;1.00;;;;;;5091534;28;20555;-78
2022/07/19 07:18:21;;;;;;;10.23;8.75;;;29.20;1.00;;;;;;5094465;28;20111;-76
2022/07/19 07:20:46;;;;;;;9.60;8.70;;;29.30;1.00;;;;;;5092651;28;20495;-77
2022/07/19 07:23:12;;;;;;;10.23;9.05;;;29.40;1.00;;;;;;5092148;28;20036;-77
2022/07/19 07:25:38;;;;;;;10.15;9.18;;;29.60;1.00;;;;;;5091806;28;20028;-77
2022/07/19 07:28:03;;;;;;;11.05;10.00;;;29.60;1.00;;;;;;5092022;28;20476;-78
2022/07/19 07:30:29;;;;;;;9.40;8.60;;;29.60;1.00;;;;;;5093402;28;20508;-77
2022/07/19 07:32:55;;;;;;;10.20;9.23;;;29.80;1.00;;;;;;5093410;28;20050;-77
2022/07/19 07:35:21;;;;;;;9.98;9.07;;;29.80;1.00;;;;;;5092075;28;20024;-77
2022/07/19 07:37:46;;;;;;;11.75;9.63;;;29.80;1.00;;;;;;5091983;28;20020;-77
2022/07/19 07:40:12;;;;;;;12.77;9.75;;;30.00;1.00;;;;;;5091821;28;20024;-78
2022/07/19 07:42:38;;;;;;;10.27;9.27;;;30.20;1.00;;;;;;5092121;28;20067;-77
2022/07/19 07:45:04;;;;;;;11.68;10.05;;;30.30;1.00;;;;;;5093813;28;20039;-78
2022/07/19 07:47:29;;;;;;;11.38;10.32;;;30.20;1.00;;;;;;5091776;28;20696;-78
2022/07/19 07:49:55;;;;;;;11.40;9.98;;;30.40;1.00;;;;;;5091536;28;20020;-77
2022/07/19 07:52:21;;;;;;;13.40;11.07;;;30.50;1.00;;;;;;5091684;28;20093;-78
2022/07/19 07:54:48;;;;;;;14.02;11.68;;;30.50;1.00;;;;;;5090640;28;20032;-77
2022/07/19 07:57:14;;;;;;;12.85;11.38;;;30.60;1.00;;;;;;5093212;28;20020;-78
2022/07/19 07:59:39;;;;;;;12.05;10.88;;;30.70;1.00;;;;;;5091483;28;20086;-78
2022/07/19 08:02:05;;;;;;;12.48;11.15;;;30.70;1.00;;;;;;5091339;28;20024;-78
2022/07/19 08:04:30;;;;;;;12.23;11.02;;;30.70;1.00;;;;;;5091199;28;20403;-78
2022/07/19 08:06:56;;;;;;;13.45;12.23;;;30.70;1.00;;;;;;5091574;28;20468;-78
2022/07/19 08:09:22;;;;;;;13.02;11.88;;;30.70;1.00;;;;;;5093117;28;20024;-78
2022/07/19 08:11:47;;;;;;;13.20;12.18;;;30.80;1.00;;;;;;5091828;28;20472;-78
2022/07/19 08:14:13;;;;;;;13.10;11.80;;;30.90;1.00;;;;;;5090707;28;20409;-77
2022/07/19 08:16:39;;;;;;;13.38;12.13;;;31.00;1.00;;;;;;5091107;28;20084;-77
2022/07/19 08:19:05;;;;;;;13.20;12.00;;;31.20;1.00;;;;;;5073099;28;20388;-78
2022/07/19 08:21:31;;;;;;;12.85;11.60;;;31.10;1.00;;;;;;5091865;28;20035;-75
2022/07/19 08:23:56;;;;;;;13.70;12.50;;;31.20;1.00;;;;;;5092064;28;20036;-76
2022/07/19 08:26:22;;;;;;;12.90;11.60;;;31.20;1.00;;;;;;5090876;28;20031;-77
2022/07/19 08:28:48;;;;;;;12.90;11.70;;;31.20;1.00;;;;;;5090696;28;20059;-78
2022/07/19 08:31:15;;;;;;;11.43;10.52;;;31.40;1.00;;;;;;5090698;28;20476;-78
2022/07/19 08:33:41;;;;;;;12.23;10.98;;;31.50;1.00;;;;;;5091386;28;20041;-78
2022/07/19 08:36:09;;;;;;;12.43;11.07;;;31.70;1.00;;;;;;5092638;28;20031;-78
2022/07/19 08:38:37;;;;;;;12.57;11.48;;;31.90;1.00;;;;;;5087658;28;20438;-78
2022/07/19 08:41:04;;;;;;;12.15;10.98;;;31.70;1.00;;;;;;5091128;28;20012;-78
2022/07/19 08:43:29;;;;;;;11.68;10.75;;;31.80;1.00;;;;;;5090535;28;20545;-78
2022/07/19 08:46:01;;;;;;;12.10;11.10;;;32.10;1.00;;;;;;5090521;28;20029;-78
2022/07/19 08:48:31;;;;;;;11.88;10.88;;;32.20;1.00;;;;;;5092040;28;20122;-78
2022/07/19 08:50:59;;;;;;;11.95;10.85;;;32.30;1.00;;;;;;5092199;28;20483;-78
2022/07/19 08:53:28;;;;;;;12.10;11.00;;;32.30;1.00;;;;;;5090009;28;20040;-78
2022/07/19 08:55:54;;;;;;;12.63;10.63;;;32.40;1.00;;;;;;5090549;28;20373;-78
2022/07/19 08:58:20;;;;;;;11.65;10.70;;;32.50;1.00;;;;;;5090604;28;20081;-78
2022/07/19 09:00:45;;;;;;;12.98;11.50;;;32.40;1.00;;;;;;5090626;28;20103;-78
2022/07/19 09:03:12;;;;;;;11.63;10.73;;;32.40;1.00;;;;;;5092701;28;20058;-78
2022/07/19 09:05:38;;;;;;;12.75;11.48;;;32.60;1.00;;;;;;5090354;28;20119;-78
2022/07/19 09:08:12;;;;;;;13.07;11.00;;;32.30;1.00;;;;;;5090012;28;20119;-78
2022/07/19 09:10:43;;;;;;;12.45;11.15;;;32.60;1.00;;;;;;5090419;28;20024;-78
2022/07/19 09:13:14;;;;;;;11.70;10.60;;;32.70;1.00;;;;;;5089063;28;20025;-78
2022/07/19 09:15:45;;;;;;;12.30;11.02;;;32.80;1.00;;;;;;5090403;28;20073;-78
2022/07/19 09:18:13;;;;;;;11.05;10.15;;;32.90;1.00;;;;;;5092408;28;20032;-78
2022/07/19 09:20:39;;;;;;;12.10;10.93;;;32.70;1.00;;;;;;5089995;28;20024;-78
2022/07/19 09:23:06;;;;;;;11.75;10.55;;;32.60;1.00;;;;;;5089619;28;20024;-78
2022/07/19 09:25:34;;;;;;;12.35;11.25;;;32.80;1.00;;;;;;5090269;28;20121;-78
2022/07/19 09:28:00;;;;;;;11.68;10.57;;;32.70;1.00;;;;;;5093758;28;20518;-78
2022/07/19 09:30:46;;;;;;;12.35;11.15;;;32.70;1.00;;;;;;5096003;28;20027;-78
2022/07/19 09:33:20;;;;;;;12.80;10.70;;;32.80;1.00;;;;;;5095367;28;20028;-78
2022/07/19 09:35:53;;;;;;;12.25;11.02;;;32.80;1.00;;;;;;5092664;28;20365;-79
2022/07/19 09:38:23;;;;;;;11.73;10.68;;;33.20;1.00;;;;;;5094218;28;20027;-78
2022/07/19 09:40:51;;;;;;;11.48;10.57;;;33.20;1.00;;;;;;5094408;28;20396;-78
2022/07/19 09:43:18;;;;;;;12.95;11.38;;;33.10;1.00;;;;;;5094224;28;20042;-78
2022/07/19 09:45:45;;;;;;;11.18;10.18;;;33.00;1.00;;;;;;5094097;28;20024;-78
2022/07/19 09:48:11;;;;;;;11.43;10.25;;;33.30;1.00;;;;;;5096325;28;20035;-78
2022/07/19 09:50:36;;;;;;;10.85;9.98;;;33.30;1.00;;;;;;5093589;28;20024;-78
2022/07/19 09:53:05;;;;;;;12.32;10.48;;;33.30;1.00;;;;;;5092570;28;20048;-78
2022/07/19 09:55:32;;;;;;;10.80;9.93;;;33.50;1.00;;;;;;5093901;28;20491;-78
2022/07/19 09:58:01;;;;;;;11.05;10.20;;;33.50;1.00;;;;;;5093899;28;20039;-78
2022/07/19 10:00:27;;;;;;;10.80;10.00;;;33.90;1.00;;;;;;5095417;28;20016;-78
2022/07/19 10:02:55;;;;;;;11.35;10.25;;;34.20;1.00;;;;;;5094360;28;20100;-78
2022/07/19 10:05:22;;;;;;;11.60;10.57;;;34.10;1.00;;;;;;5093395;28;20024;-78
2022/07/19 10:07:48;;;;;;;11.68;10.57;;;34.30;1.00;;;;;;5093754;28;20027;-78
2022/07/19 10:10:17;;;;;;;11.60;10.55;;;34.20;1.00;;;;;;5093812;28;20165;-79
2022/07/19 10:12:45;;;;;;;11.55;10.65;;;34.10;1.00;;;;;;5093894;28;20051;-78
2022/07/19 10:15:13;;;;;;;11.40;10.23;;;34.20;1.00;;;;;;5095633;28;20032;-78
2022/07/19 10:17:47;;;;;;;11.32;10.32;;;34.10;1.00;;;;;;5093543;28;20020;-78
2022/07/19 10:20:18;;;;;;;12.07;10.80;;;34.10;1.00;;;;;;5092951;28;20035;-78
2022/07/19 10:22:45;;;;;;;11.88;10.80;;;34.60;1.00;;;;;;5093455;28;20036;-78
2022/07/19 10:25:15;;;;;;;11.30;10.30;;;34.70;1.00;;;;;;5093705;28;20027;-78
2022/07/19 10:27:43;;;;;;;12.32;11.02;;;34.80;1.00;;;;;;5093410;28;20043;-78
2022/07/19 10:30:12;;;;;;;11.35;10.43;;;34.60;1.00;;;;;;5095657;28;20036;-78
2022/07/19 10:32:39;;;;;;;11.43;10.35;;;34.40;1.00;;;;;;5091872;28;20024;-78
2022/07/19 10:35:18;;;;;;;11.90;10.85;;;34.40;1.00;;;;;;5092954;28;20106;-78
2022/07/19 10:37:50;;;;;;;11.00;10.10;;;34.40;1.00;;;;;;5092499;28;20472;-78
2022/07/19 10:40:35;;;;;;;12.10;11.13;;;34.50;1.00;;;;;;5093138;28;20020;-78
2022/07/19 10:43:06;;;;;;;11.93;10.88;;;34.60;1.00;;;;;;5078382;28;20081;-78
2022/07/19 10:45:32;;;;;;;12.20;11.00;;;34.40;1.00;;;;;;5094103;28;20035;-79
2022/07/19 10:48:00;;;;;;;12.48;11.23;;;34.40;1.00;;;;;;5094223;28;20508;-78
2022/07/19 10:50:51;;;;;;;11.50;10.57;;;34.50;1.00;;;;;;5092925;28;20035;-78
2022/07/19 10:53:56;;;;;;;11.57;10.38;;;34.30;1.00;;;;;;5092741;28;20019;-78
2022/07/19 10:56:28;;;;;;;11.80;10.65;;;34.90;1.00;;;;;;5031821;28;20025;-78
2022/07/19 10:58:59;;;;;;;12.75;11.52;;;35.10;1.00;;;;;;5031743;28;20040;-78
2022/07/19 11:01:27;;;;;;;11.88;10.77;;;34.90;1.00;;;;;;5032066;28;20065;-78
2022/07/19 11:03:54;;;;;;;11.27;10.38;;;34.80;1.00;;;;;;5031591;28;20112;-78
2022/07/19 11:06:25;;;;;;;12.90;11.88;;;35.00;1.00;;;;;;5032626;28;20045;-78
2022/07/19 11:08:56;;;;;;;11.70;10.80;;;34.70;1.00;;;;;;5031925;28;20057;-78
2022/07/19 11:11:23;;;;;;;12.93;11.95;;;35.10;1.00;;;;;;5032012;28;20057;-78
2022/07/19 11:13:59;;;;;;;12.10;11.20;;;34.90;1.00;;;;;;5031623;28;20095;-78
2022/07/19 11:16:26;;;;;;;11.65;10.75;;;34.80;1.00;;;;;;5031513;28;20047;-78
2022/07/19 11:19:02;;;;;;;11.90;11.00;;;35.20;1.00;;;;;;5031394;28;20026;-78
2022/07/19 11:21:32;;;;;;;12.27;11.35;;;35.40;1.00;;;;;;5031741;28;20084;-78
2022/07/19 11:23:57;;;;;;;12.35;11.35;;;35.60;1.00;;;;;;5031381;28;20042;-78
2022/07/19 11:26:23;;;;;;;11.57;10.57;;;35.20;1.00;;;;;;5040210;28;20043;-78
2022/07/19 11:28:50;;;;;;;12.70;10.90;;;35.20;1.00;;;;;;5084262;28;20050;-78
2022/07/19 11:31:19;;;;;;;12.57;11.60;;;35.60;1.00;;;;;;5092313;28;20012;-78
2022/07/19 11:33:47;;;;;;;12.27;11.18;;;35.70;1.00;;;;;;5092028;28;20054;-78
2022/07/19 11:36:15;;;;;;;13.02;10.85;;;35.60;1.00;;;;;;5076373;28;20028;-79
2022/07/19 11:38:42;;;;;;;11.98;10.98;;;35.50;1.00;;;;;;5092033;28;20059;-79
2022/07/19 11:41:24;;;;;;;12.05;11.05;;;35.50;1.00;;;;;;5091999;28;20020;-78
2022/07/19 11:43:59;;;;;;;12.60;11.35;;;35.30;1.00;;;;;;5091796;28;20519;-78
2022/07/19 11:46:42;;;;;;;12.30;11.40;;;35.90;1.00;;;;;;5091483;28;20096;-79
2022/07/19 11:49:10;;;;;;;11.98;10.98;;;36.60;1.00;;;;;;5089583;28;20115;-77
2022/07/19 11:51:36;;;;;;;11.85;10.98;;;37.50;1.00;;;;;;5092231;28;20510;-78
2022/07/19 11:54:04;;;;;;;11.88;10.77;;;38.90;1.00;;;;;;5091634;28;20476;-78
2022/07/19 11:56:32;;;;;;;11.77;10.85;;;39.40;1.00;;;;;;5091514;28;20028;-79
2022/07/19 11:59:03;;;;;;;11.63;10.68;;;39.60;1.00;;;;;;5091104;28;20085;-76
2022/07/19 12:01:31;;;;;;;11.45;10.55;;;40.50;1.00;;;;;;5090752;28;20106;-76
2022/07/19 12:04:03;;;;;;;13.43;11.32;;;41.30;1.00;;;;;;5091427;28;20090;-79
2022/07/19 12:06:59;;;;;;;11.90;10.55;;;41.40;1.00;;;;;;5092897;28;20028;-78
2022/07/19 12:09:28;;;;;;;11.77;10.82;;;43.20;1.00;;;;;;5076472;28;20496;-79
2022/07/19 12:11:55;;;;;;;11.30;10.30;;;42.70;1.00;;;;;;5092064;28;20016;-78
2022/07/19 12:14:30;;;;;;;11.70;10.55;;;43.00;1.00;;;;;;5090514;28;20024;-79
2022/07/19 12:17:20;;;;;;;11.38;10.02;;;43.60;1.00;;;;;;5090748;28;20027;-79
2022/07/19 12:19:55;;;;;;;11.13;10.23;;;42.50;1.00;;;;;;5073005;28;20400;-79
2022/07/19 12:22:46;;;;;;;11.20;9.68;;;43.70;1.00;;;;;;5090792;28;20078;-79
2022/07/19 12:25:12;;;;;;;10.85;10.02;;;44.00;1.00;;;;;;5073463;28;20058;-79
2022/07/19 12:27:40;;;;;;;11.23;10.23;;;44.20;1.00;;;;;;5091815;28;20036;-79
2022/07/19 12:30:07;;;;;;;11.10;10.13;;;42.90;1.00;;;;;;5090940;28;20523;-78
2022/07/19 12:32:45;;;;;;;10.45;9.60;;;42.40;1.00;;;;;;5090846;28;20024;-78
2022/07/19 12:35:13;;;;;;;10.60;9.60;;;43.00;1.00;;;;;;5091036;28;20516;-78
2022/07/19 12:37:41;;;;;;;11.32;10.20;;;43.90;1.00;;;;;;5089597;28;20073;-79
2022/07/19 12:40:21;;;;;;;10.65;9.63;;;44.50;1.00;;;;;;5090844;28;20054;-80
2022/07/19 12:42:47;;;;;;;9.80;9.05;;;45.20;1.00;;;;;;5090705;28;20579;-79
2022/07/19 12:45:13;;;;;;;10.02;9.02;;;46.10;1.00;;;;;;5092506;28;20103;-79
2022/07/19 12:47:39;;;;;;;9.32;8.52;;;45.40;1.00;;;;;;5090672;28;20489;-79